sensor_id;sensor_type;location;lat;lon;timestamp;P1;durP1;ratioP1;P2;durP2;ratioP2
60865;SDS011;46701;51.558;-0.448;2022-08-19T00:02:39;1.6;;;0.7;;
60865;SDS011;46701;51.558;-0.448;2022-08-19T00:05:40;2.5;;;0.8;;
60865;SDS011;46701;51.558;-0.448;2022-08-19T00:08:41;3.1;;;0.8;;
60865;SDS011;46701;51.558;-0.448;2022-08-19T00:11:42;1.6;;;0.7;;
60865;SDS011;46701;51.558;-0.448;2022-08-19T00:14:43;2.3;;;0.8;;
60865;SDS011;46701;51.558;-0.448;2022-08-19T00:17:44;1.6;;;0.8;;
60865;SDS011;46701;51.558;-0.448;2022-08-19T00:20:45;1.2;;;0.7;;
60865;SDS011;46701;51.558;-0.448;2022-08-19T00:23:46;1.1;;;0.7;;
60865;SDS011;46701;51.558;-0.448;2022-08-19T00:26:47;2.1;;;0.6;;
60865;SDS011;46701;51.558;-0.448;2022-08-19T00:29:48;2.3;;;0.8;;
60865;SDS011;46701;51.558;-0.448;2022-08-19T00:32:49;1.5;;;0.6;;
60865;SDS011;46701;51.558;-0.448;2022-08-19T00:35:50;2.6;;;0.9;;
60865;SDS011;46701;51.558;-0.448;2022-08-19T00:38:51;1.2;;;0.6;;
60865;SDS011;46701;51.558;-0.448;2022-08-19T00:41:52;1.6;;;0.6;;
60865;SDS011;46701;51.558;-0.448;2022-08-19T00:44:53;1.4;;;0.7;;
60865;SDS011;46701;51.558;-0.448;2022-08-19T00:47:54;1.1;;;0.6;;
60865;SDS011;46701;51.558;-0.448;2022-08-19T00:50:55;2.3;;;0.7;;
60865;SDS011;46701;51.558;-0.448;2022-08-19T00:53:56;1.7;;;0.8;;
60865;SDS011;46701;51.558;-0.448;2022-08-19T00:56:57;3.5;;;0.8;;
60865;SDS011;46701;51.558;-0.448;2022-08-19T00:59:58;1.7;;;0.6;;
60865;SDS011;46701;51.558;-0.448;2022-08-19T01:02:59;2.2;;;0.9;;
60865;SDS011;46701;51.558;-0.448;2022-08-19T01:06:00;2.2;;;0.7;;
60865;SDS011;46701;51.558;-0.448;2022-08-19T01:09:01;1.1;;;0.5;;
60865;SDS011;46701;51.558;-0.448;2022-08-19T01:12:02;1.3;;;0.7;;
60865;SDS011;46701;51.558;-0.448;2022-08-19T01:15:03;1.4;;;0.7;;
60865;SDS011;46701;51.558;-0.448;2022-08-19T01:18:05;2.1;;;0.7;;
60865;SDS011;46701;51.558;-0.448;2022-08-19T01:21:06;1;;;0.6;;
60865;SDS011;46701;51.558;-0.448;2022-08-19T01:24:06;1.5;;;0.6;;
60865;SDS011;46701;51.558;-0.448;2022-08-19T01:27:07;2.8;;;0.9;;
60865;SDS011;46701;51.558;-0.448;2022-08-19T01:30:09;1;;;0.5;;
60865;SDS011;46701;51.558;-0.448;2022-08-19T01:33:09;2.5;;;0.8;;
60865;SDS011;46701;51.558;-0.448;2022-08-19T01:36:12;2.3;;;0.7;;
60865;SDS011;46701;51.558;-0.448;2022-08-19T01:39:12;1.7;;;0.6;;
60865;SDS011;46701;51.558;-0.448;2022-08-19T01:42:12;1.1;;;0.6;;
60865;SDS011;46701;51.558;-0.448;2022-08-19T01:45:13;1.4;;;0.7;;
60865;SDS011;46701;51.558;-0.448;2022-08-19T01:47:13;3.3;;;0.7;;
60865;SDS011;46701;51.558;-0.448;2022-08-19T01:50:14;2.4;;;0.7;;
60865;SDS011;46701;51.558;-0.448;2022-08-19T01:53:15;0.9;;;0.6;;
60865;SDS011;46701;51.558;-0.448;2022-08-19T01:56:17;1.4;;;0.7;;
60865;SDS011;46701;51.558;-0.448;2022-08-19T01:59:18;2.3;;;0.7;;
60865;SDS011;46701;51.558;-0.448;2022-08-19T02:02:18;1.4;;;0.7;;
60865;SDS011;46701;51.558;-0.448;2022-08-19T02:05:19;1.2;;;0.8;;
60865;SDS011;46701;51.558;-0.448;2022-08-19T02:08:20;1.6;;;0.7;;
60865;SDS011;46701;51.558;-0.448;2022-08-19T02:11:22;0.9;;;0.6;;
60865;SDS011;46701;51.558;-0.448;2022-08-19T02:14:22;1;;;0.7;;
60865;SDS011;46701;51.558;-0.448;2022-08-19T02:17:23;1.3;;;0.6;;
60865;SDS011;46701;51.558;-0.448;2022-08-19T02:20:24;1.4;;;0.7;;
60865;SDS011;46701;51.558;-0.448;2022-08-19T02:23:25;1.1;;;0.7;;
60865;SDS011;46701;51.558;-0.448;2022-08-19T02:26:26;1.7;;;0.8;;
60865;SDS011;46701;51.558;-0.448;2022-08-19T02:29:27;2;;;0.7;;
60865;SDS011;46701;51.558;-0.448;2022-08-19T02:32:28;1.1;;;0.7;;
60865;SDS011;46701;51.558;-0.448;2022-08-19T02:35:29;1.4;;;0.6;;
60865;SDS011;46701;51.558;-0.448;2022-08-19T02:38:31;1.6;;;0.7;;
60865;SDS011;46701;51.558;-0.448;2022-08-19T02:41:32;1.2;;;0.8;;
60865;SDS011;46701;51.558;-0.448;2022-08-19T02:44:32;1.6;;;0.6;;
60865;SDS011;46701;51.558;-0.448;2022-08-19T02:47:33;1.1;;;0.7;;
60865;SDS011;46701;51.558;-0.448;2022-08-19T02:50:36;1.8;;;0.8;;
60865;SDS011;46701;51.558;-0.448;2022-08-19T02:53:35;1.5;;;0.7;;
60865;SDS011;46701;51.558;-0.448;2022-08-19T02:56:37;1.5;;;0.7;;
60865;SDS011;46701;51.558;-0.448;2022-08-19T02:59:37;1.1;;;0.7;;
60865;SDS011;46701;51.558;-0.448;2022-08-19T03:02:38;1.4;;;0.8;;
60865;SDS011;46701;51.558;-0.448;2022-08-19T03:05:39;1.1;;;0.5;;
60865;SDS011;46701;51.558;-0.448;2022-08-19T03:08:41;1.1;;;0.7;;
60865;SDS011;46701;51.558;-0.448;2022-08-19T03:11:41;1.6;;;0.9;;
60865;SDS011;46701;51.558;-0.448;2022-08-19T03:14:42;1.4;;;0.7;;
60865;SDS011;46701;51.558;-0.448;2022-08-19T03:17:43;1.5;;;0.8;;
60865;SDS011;46701;51.558;-0.448;2022-08-19T03:20:45;1.6;;;0.6;;
60865;SDS011;46701;51.558;-0.448;2022-08-19T03:23:45;0.9;;;0.7;;
60865;SDS011;46701;51.558;-0.448;2022-08-19T03:26:47;1.3;;;0.7;;
60865;SDS011;46701;51.558;-0.448;2022-08-19T03:29:47;1.2;;;0.7;;
60865;SDS011;46701;51.558;-0.448;2022-08-19T03:32:48;1.9;;;0.8;;
60865;SDS011;46701;51.558;-0.448;2022-08-19T03:35:59;1.4;;;0.7;;
60865;SDS011;46701;51.558;-0.448;2022-08-19T03:36:57;1.4;;;0.7;;
60865;SDS011;46701;51.558;-0.448;2022-08-19T03:38:51;1.3;;;0.7;;
60865;SDS011;46701;51.558;-0.448;2022-08-19T03:41:52;1.6;;;0.8;;
60865;SDS011;46701;51.558;-0.448;2022-08-19T03:44:52;2.1;;;0.8;;
60865;SDS011;46701;51.558;-0.448;2022-08-19T03:46:53;1.2;;;0.6;;
60865;SDS011;46701;51.558;-0.448;2022-08-19T03:49:54;1.1;;;0.6;;
60865;SDS011;46701;51.558;-0.448;2022-08-19T03:52:55;1.1;;;0.6;;
60865;SDS011;46701;51.558;-0.448;2022-08-19T03:55:56;1.3;;;0.8;;
60865;SDS011;46701;51.558;-0.448;2022-08-19T03:58:58;1.2;;;0.7;;
60865;SDS011;46701;51.558;-0.448;2022-08-19T04:01:59;1;;;0.6;;
60865;SDS011;46701;51.558;-0.448;2022-08-19T04:04:59;1;;;0.7;;
60865;SDS011;46701;51.558;-0.448;2022-08-19T04:08:00;1.2;;;0.6;;
60865;SDS011;46701;51.558;-0.448;2022-08-19T04:11:01;1;;;0.6;;
60865;SDS011;46701;51.558;-0.448;2022-08-19T04:14:02;1.1;;;0.6;;
60865;SDS011;46701;51.558;-0.448;2022-08-19T04:17:03;1.1;;;0.6;;
60865;SDS011;46701;51.558;-0.448;2022-08-19T04:20:04;1.4;;;0.7;;
60865;SDS011;46701;51.558;-0.448;2022-08-19T04:23:05;1.4;;;0.7;;
60865;SDS011;46701;51.558;-0.448;2022-08-19T04:26:06;1.4;;;0.6;;
60865;SDS011;46701;51.558;-0.448;2022-08-19T04:29:07;0.8;;;0.5;;
60865;SDS011;46701;51.558;-0.448;2022-08-19T04:32:08;1.1;;;0.6;;
60865;SDS011;46701;51.558;-0.448;2022-08-19T04:35:09;1.2;;;0.7;;
60865;SDS011;46701;51.558;-0.448;2022-08-19T04:38:10;1.5;;;0.7;;
60865;SDS011;46701;51.558;-0.448;2022-08-19T04:41:11;1;;;0.5;;
60865;SDS011;46701;51.558;-0.448;2022-08-19T04:44:12;1.2;;;0.6;;
60865;SDS011;46701;51.558;-0.448;2022-08-19T04:47:13;0.8;;;0.5;;
60865;SDS011;46701;51.558;-0.448;2022-08-19T04:50:14;0.8;;;0.5;;
60865;SDS011;46701;51.558;-0.448;2022-08-19T04:53:15;1.3;;;0.7;;
60865;SDS011;46701;51.558;-0.448;2022-08-19T04:56:16;1.2;;;0.7;;
60865;SDS011;46701;51.558;-0.448;2022-08-19T04:59:17;2.1;;;0.7;;
60865;SDS011;46701;51.558;-0.448;2022-08-19T05:02:18;1.4;;;0.6;;
60865;SDS011;46701;51.558;-0.448;2022-08-19T05:05:19;1.1;;;0.7;;
60865;SDS011;46701;51.558;-0.448;2022-08-19T05:08:20;0.8;;;0.6;;
60865;SDS011;46701;51.558;-0.448;2022-08-19T05:11:22;1.3;;;0.6;;
60865;SDS011;46701;51.558;-0.448;2022-08-19T05:14:22;1.2;;;0.5;;
60865;SDS011;46701;51.558;-0.448;2022-08-19T05:17:23;0.7;;;0.4;;
60865;SDS011;46701;51.558;-0.448;2022-08-19T05:20:24;1.2;;;0.5;;
60865;SDS011;46701;51.558;-0.448;2022-08-19T05:23:25;1;;;0.7;;
60865;SDS011;46701;51.558;-0.448;2022-08-19T05:26:26;1;;;0.5;;
60865;SDS011;46701;51.558;-0.448;2022-08-19T05:29:27;1.1;;;0.6;;
60865;SDS011;46701;51.558;-0.448;2022-08-19T05:32:28;1.5;;;0.5;;
60865;SDS011;46701;51.558;-0.448;2022-08-19T05:35:29;1.1;;;0.6;;
60865;SDS011;46701;51.558;-0.448;2022-08-19T05:38:30;0.7;;;0.4;;
60865;SDS011;46701;51.558;-0.448;2022-08-19T05:41:31;0.9;;;0.5;;
60865;SDS011;46701;51.558;-0.448;2022-08-19T05:43:31;0.8;;;0.5;;
60865;SDS011;46701;51.558;-0.448;2022-08-19T05:46:32;0.6;;;0.4;;
60865;SDS011;46701;51.558;-0.448;2022-08-19T05:49:33;0.8;;;0.5;;
60865;SDS011;46701;51.558;-0.448;2022-08-19T05:52:34;1.1;;;0.5;;
60865;SDS011;46701;51.558;-0.448;2022-08-19T05:55:35;0.7;;;0.4;;
60865;SDS011;46701;51.558;-0.448;2022-08-19T05:58:36;1;;;0.5;;
60865;SDS011;46701;51.558;-0.448;2022-08-19T06:01:38;0.9;;;0.5;;
60865;SDS011;46701;51.558;-0.448;2022-08-19T06:04:38;0.9;;;0.5;;
60865;SDS011;46701;51.558;-0.448;2022-08-19T06:07:39;0.8;;;0.5;;
60865;SDS011;46701;51.558;-0.448;2022-08-19T06:10:40;0.8;;;0.4;;
60865;SDS011;46701;51.558;-0.448;2022-08-19T06:13:41;0.7;;;0.4;;
60865;SDS011;46701;51.558;-0.448;2022-08-19T06:16:42;0.7;;;0.4;;
60865;SDS011;46701;51.558;-0.448;2022-08-19T06:19:43;1;;;0.5;;
60865;SDS011;46701;51.558;-0.448;2022-08-19T06:22:45;0.7;;;0.5;;
60865;SDS011;46701;51.558;-0.448;2022-08-19T06:25:45;0.7;;;0.4;;
60865;SDS011;46701;51.558;-0.448;2022-08-19T06:28:46;0.9;;;0.4;;
60865;SDS011;46701;51.558;-0.448;2022-08-19T06:31:48;1.5;;;0.4;;
60865;SDS011;46701;51.558;-0.448;2022-08-19T06:34:48;2.1;;;0.5;;
60865;SDS011;46701;51.558;-0.448;2022-08-19T06:37:49;0.6;;;0.4;;
60865;SDS011;46701;51.558;-0.448;2022-08-19T06:40:50;0.6;;;0.4;;
60865;SDS011;46701;51.558;-0.448;2022-08-19T06:43:51;0.8;;;0.4;;
60865;SDS011;46701;51.558;-0.448;2022-08-19T06:46:52;1.1;;;0.4;;
60865;SDS011;46701;51.558;-0.448;2022-08-19T06:49:53;0.7;;;0.4;;
60865;SDS011;46701;51.558;-0.448;2022-08-19T06:52:54;2;;;0.4;;
60865;SDS011;46701;51.558;-0.448;2022-08-19T06:55:55;1.3;;;0.4;;
60865;SDS011;46701;51.558;-0.448;2022-08-19T06:58:56;0.6;;;0.5;;
60865;SDS011;46701;51.558;-0.448;2022-08-19T07:01:57;0.9;;;0.4;;
60865;SDS011;46701;51.558;-0.448;2022-08-19T07:04:58;0.7;;;0.4;;
60865;SDS011;46701;51.558;-0.448;2022-08-19T07:07:59;0.8;;;0.4;;
60865;SDS011;46701;51.558;-0.448;2022-08-19T07:11:00;0.9;;;0.5;;
60865;SDS011;46701;51.558;-0.448;2022-08-19T07:14:01;0.7;;;0.5;;
60865;SDS011;46701;51.558;-0.448;2022-08-19T07:17:03;0.9;;;0.4;;
60865;SDS011;46701;51.558;-0.448;2022-08-19T07:20:04;1.2;;;0.3;;
60865;SDS011;46701;51.558;-0.448;2022-08-19T07:23:04;0.8;;;0.4;;
60865;SDS011;46701;51.558;-0.448;2022-08-19T07:26:06;0.5;;;0.3;;
60865;SDS011;46701;51.558;-0.448;2022-08-19T07:29:06;1;;;0.5;;
60865;SDS011;46701;51.558;-0.448;2022-08-19T07:32:07;0.7;;;0.3;;
60865;SDS011;46701;51.558;-0.448;2022-08-19T07:35:13;0.8;;;0.4;;
60865;SDS011;46701;51.558;-0.448;2022-08-19T07:36:08;0.8;;;0.4;;
60865;SDS011;46701;51.558;-0.448;2022-08-19T07:37:09;1.1;;;0.4;;
60865;SDS011;46701;51.558;-0.448;2022-08-19T07:40:10;0.5;;;0.3;;
60865;SDS011;46701;51.558;-0.448;2022-08-19T07:43:11;1.3;;;0.3;;
60865;SDS011;46701;51.558;-0.448;2022-08-19T07:46:12;0.8;;;0.4;;
60865;SDS011;46701;51.558;-0.448;2022-08-19T07:49:13;0.7;;;0.4;;
60865;SDS011;46701;51.558;-0.448;2022-08-19T07:52:14;2.2;;;0.5;;
60865;SDS011;46701;51.558;-0.448;2022-08-19T07:55:16;6.6;;;0.7;;
60865;SDS011;46701;51.558;-0.448;2022-08-19T07:58:17;9.4;;;0.6;;
60865;SDS011;46701;51.558;-0.448;2022-08-19T08:01:18;7.2;;;0.9;;
60865;SDS011;46701;51.558;-0.448;2022-08-19T08:04:18;6.6;;;0.9;;
60865;SDS011;46701;51.558;-0.448;2022-08-19T08:07:19;11.2;;;1;;
60865;SDS011;46701;51.558;-0.448;2022-08-19T08:10:20;7.5;;;0.8;;
60865;SDS011;46701;51.558;-0.448;2022-08-19T08:13:21;4.5;;;0.7;;
60865;SDS011;46701;51.558;-0.448;2022-08-19T08:16:22;5.3;;;0.8;;
60865;SDS011;46701;51.558;-0.448;2022-08-19T08:19:23;4;;;0.8;;
60865;SDS011;46701;51.558;-0.448;2022-08-19T08:22:24;3.3;;;0.6;;
60865;SDS011;46701;51.558;-0.448;2022-08-19T08:25:25;6.4;;;0.8;;
60865;SDS011;46701;51.558;-0.448;2022-08-19T08:28:26;4;;;0.7;;
60865;SDS011;46701;51.558;-0.448;2022-08-19T08:31:27;3.6;;;0.7;;
60865;SDS011;46701;51.558;-0.448;2022-08-19T08:34:28;4;;;0.8;;
60865;SDS011;46701;51.558;-0.448;2022-08-19T08:37:29;4.4;;;1;;
60865;SDS011;46701;51.558;-0.448;2022-08-19T08:40:31;3.9;;;1.1;;
60865;SDS011;46701;51.558;-0.448;2022-08-19T08:43:32;5.3;;;1.1;;
60865;SDS011;46701;51.558;-0.448;2022-08-19T08:46:34;3.7;;;1;;
60865;SDS011;46701;51.558;-0.448;2022-08-19T08:49:33;6.1;;;1.3;;
60865;SDS011;46701;51.558;-0.448;2022-08-19T08:52:35;3.6;;;1.2;;
60865;SDS011;46701;51.558;-0.448;2022-08-19T08:55:35;5.8;;;1.3;;
60865;SDS011;46701;51.558;-0.448;2022-08-19T08:58:38;5.3;;;1.4;;
60865;SDS011;46701;51.558;-0.448;2022-08-19T08:59:00;5.3;;;1.4;;
60865;SDS011;46701;51.558;-0.448;2022-08-19T09:01:37;4.3;;;1.1;;
60865;SDS011;46701;51.558;-0.448;2022-08-19T09:04:38;5.7;;;1.5;;
60865;SDS011;46701;51.558;-0.448;2022-08-19T09:07:41;5.9;;;1.5;;
60865;SDS011;46701;51.558;-0.448;2022-08-19T09:08:23;5.9;;;1.5;;
60865;SDS011;46701;51.558;-0.448;2022-08-19T09:08:30;5.9;;;1.5;;
60865;SDS011;46701;51.558;-0.448;2022-08-19T09:08:36;5.9;;;1.5;;
60865;SDS011;46701;51.558;-0.448;2022-08-19T09:08:39;5.9;;;1.5;;
60865;SDS011;46701;51.558;-0.448;2022-08-19T09:10:40;5.1;;;1.4;;
60865;SDS011;46701;51.558;-0.448;2022-08-19T09:13:42;5.5;;;1.4;;
60865;SDS011;46701;51.558;-0.448;2022-08-19T09:16:42;5.4;;;1.3;;
60865;SDS011;46701;51.558;-0.448;2022-08-19T09:19:47;5.2;;;1.4;;
60865;SDS011;46701;51.558;-0.448;2022-08-19T09:20:23;5.2;;;1.4;;
60865;SDS011;46701;51.558;-0.448;2022-08-19T09:22:44;6.7;;;1.9;;
60865;SDS011;46701;51.558;-0.448;2022-08-19T09:25:45;6.1;;;1.4;;
60865;SDS011;46701;51.558;-0.448;2022-08-19T09:28:47;5.2;;;1.6;;
60865;SDS011;46701;51.558;-0.448;2022-08-19T09:31:47;8.7;;;2.1;;
60865;SDS011;46701;51.558;-0.448;2022-08-19T09:33:48;6.5;;;2;;
60865;SDS011;46701;51.558;-0.448;2022-08-19T09:36:48;6.8;;;1.8;;
60865;SDS011;46701;51.558;-0.448;2022-08-19T09:39:50;6.7;;;1.8;;
60865;SDS011;46701;51.558;-0.448;2022-08-19T09:42:56;5.6;;;1.6;;
60865;SDS011;46701;51.558;-0.448;2022-08-19T09:45:52;8.2;;;2.1;;
60865;SDS011;46701;51.558;-0.448;2022-08-19T09:48:53;5.8;;;1.5;;
60865;SDS011;46701;51.558;-0.448;2022-08-19T09:51:53;8.8;;;1.9;;
60865;SDS011;46701;51.558;-0.448;2022-08-19T09:54:54;7.9;;;2.2;;
60865;SDS011;46701;51.558;-0.448;2022-08-19T09:57:55;4.8;;;1.6;;
60865;SDS011;46701;51.558;-0.448;2022-08-19T10:00:57;4.3;;;1.5;;
60865;SDS011;46701;51.558;-0.448;2022-08-19T10:03:58;5.9;;;1.6;;
60865;SDS011;46701;51.558;-0.448;2022-08-19T10:06:59;4;;;1.4;;
60865;SDS011;46701;51.558;-0.448;2022-08-19T10:09:59;6;;;1.7;;
60865;SDS011;46701;51.558;-0.448;2022-08-19T10:13:00;5.9;;;1.6;;
60865;SDS011;46701;51.558;-0.448;2022-08-19T10:16:03;7.1;;;1.8;;
60865;SDS011;46701;51.558;-0.448;2022-08-19T10:19:02;4.8;;;1.5;;
60865;SDS011;46701;51.558;-0.448;2022-08-19T10:22:04;5.4;;;1.4;;
60865;SDS011;46701;51.558;-0.448;2022-08-19T10:25:05;6.8;;;1.7;;
60865;SDS011;46701;51.558;-0.448;2022-08-19T10:28:06;5.1;;;1.6;;
60865;SDS011;46701;51.558;-0.448;2022-08-19T10:31:07;6.9;;;1.4;;
60865;SDS011;46701;51.558;-0.448;2022-08-19T10:34:07;4;;;1.3;;
60865;SDS011;46701;51.558;-0.448;2022-08-19T10:37:08;4.3;;;1.3;;
60865;SDS011;46701;51.558;-0.448;2022-08-19T10:40:10;4.1;;;1.3;;
60865;SDS011;46701;51.558;-0.448;2022-08-19T10:43:10;5.8;;;1.2;;
60865;SDS011;46701;51.558;-0.448;2022-08-19T10:46:12;5.9;;;1.3;;
60865;SDS011;46701;51.558;-0.448;2022-08-19T10:49:18;5.6;;;1.4;;
60865;SDS011;46701;51.558;-0.448;2022-08-19T10:52:13;5.6;;;1.5;;
60865;SDS011;46701;51.558;-0.448;2022-08-19T10:55:14;5.1;;;1.4;;
60865;SDS011;46701;51.558;-0.448;2022-08-19T10:58:16;6.3;;;1.4;;
60865;SDS011;46701;51.558;-0.448;2022-08-19T11:01:16;5.1;;;1.6;;
60865;SDS011;46701;51.558;-0.448;2022-08-19T11:04:18;6.4;;;1.5;;
60865;SDS011;46701;51.558;-0.448;2022-08-19T11:07:18;6.1;;;1.5;;
60865;SDS011;46701;51.558;-0.448;2022-08-19T11:10:20;7.3;;;1.6;;
60865;SDS011;46701;51.558;-0.448;2022-08-19T11:13:20;7.7;;;1.7;;
60865;SDS011;46701;51.558;-0.448;2022-08-19T11:16:22;10.4;;;2;;
60865;SDS011;46701;51.558;-0.448;2022-08-19T11:19:22;9.7;;;1.6;;
60865;SDS011;46701;51.558;-0.448;2022-08-19T11:22:23;7.4;;;1.7;;
60865;SDS011;46701;51.558;-0.448;2022-08-19T11:25:24;6.5;;;1.4;;
60865;SDS011;46701;51.558;-0.448;2022-08-19T11:28:25;7.5;;;1.7;;
60865;SDS011;46701;51.558;-0.448;2022-08-19T11:30:26;6.8;;;1.7;;
60865;SDS011;46701;51.558;-0.448;2022-08-19T11:33:27;6.6;;;2;;
60865;SDS011;46701;51.558;-0.448;2022-08-19T11:36:28;7.8;;;1.6;;
60865;SDS011;46701;51.558;-0.448;2022-08-19T11:39:30;5.4;;;1.6;;
60865;SDS011;46701;51.558;-0.448;2022-08-19T11:42:30;7.9;;;1.8;;
60865;SDS011;46701;51.558;-0.448;2022-08-19T11:45:31;6.4;;;1.8;;
60865;SDS011;46701;51.558;-0.448;2022-08-19T11:48:32;6.4;;;1.8;;
60865;SDS011;46701;51.558;-0.448;2022-08-19T11:51:33;6.3;;;1.7;;
60865;SDS011;46701;51.558;-0.448;2022-08-19T11:54:34;7.1;;;1.9;;
60865;SDS011;46701;51.558;-0.448;2022-08-19T11:57:35;8.1;;;2.1;;
60865;SDS011;46701;51.558;-0.448;2022-08-19T12:00:37;6.2;;;1.8;;
60865;SDS011;46701;51.558;-0.448;2022-08-19T12:03:37;7.3;;;1.8;;
60865;SDS011;46701;51.558;-0.448;2022-08-19T12:06:39;6.7;;;1.8;;
60865;SDS011;46701;51.558;-0.448;2022-08-19T12:09:39;7.1;;;1.6;;
60865;SDS011;46701;51.558;-0.448;2022-08-19T12:12:40;5.9;;;1.7;;
60865;SDS011;46701;51.558;-0.448;2022-08-19T12:15:41;7.5;;;1.6;;
60865;SDS011;46701;51.558;-0.448;2022-08-19T12:18:42;10.8;;;1.8;;
60865;SDS011;46701;51.558;-0.448;2022-08-19T12:21:43;8.6;;;1.9;;
60865;SDS011;46701;51.558;-0.448;2022-08-19T12:24:47;6.8;;;1.7;;
60865;SDS011;46701;51.558;-0.448;2022-08-19T12:27:45;10.8;;;2.3;;
60865;SDS011;46701;51.558;-0.448;2022-08-19T12:30:46;7.4;;;1.8;;
60865;SDS011;46701;51.558;-0.448;2022-08-19T12:33:47;9;;;1.9;;
60865;SDS011;46701;51.558;-0.448;2022-08-19T12:36:48;7.5;;;1.7;;
60865;SDS011;46701;51.558;-0.448;2022-08-19T12:39:49;6.5;;;1.9;;
60865;SDS011;46701;51.558;-0.448;2022-08-19T12:42:50;6.8;;;1.9;;
60865;SDS011;46701;51.558;-0.448;2022-08-19T12:45:51;7.6;;;1.8;;
60865;SDS011;46701;51.558;-0.448;2022-08-19T12:48:52;6.2;;;1.6;;
60865;SDS011;46701;51.558;-0.448;2022-08-19T12:51:53;7.1;;;1.6;;
60865;SDS011;46701;51.558;-0.448;2022-08-19T12:54:55;6.7;;;1.7;;
60865;SDS011;46701;51.558;-0.448;2022-08-19T12:57:55;7.5;;;1.5;;
60865;SDS011;46701;51.558;-0.448;2022-08-19T13:00:56;7.8;;;1.8;;
60865;SDS011;46701;51.558;-0.448;2022-08-19T13:03:57;7.7;;;1.9;;
60865;SDS011;46701;51.558;-0.448;2022-08-19T13:06:58;6;;;1.8;;
60865;SDS011;46701;51.558;-0.448;2022-08-19T13:09:59;6.3;;;1.6;;
60865;SDS011;46701;51.558;-0.448;2022-08-19T13:13:00;5.1;;;1.6;;
60865;SDS011;46701;51.558;-0.448;2022-08-19T13:16:01;7.1;;;1.8;;
60865;SDS011;46701;51.558;-0.448;2022-08-19T13:19:02;7.8;;;1.6;;
60865;SDS011;46701;51.558;-0.448;2022-08-19T13:22:03;8.3;;;1.8;;
60865;SDS011;46701;51.558;-0.448;2022-08-19T13:24:04;7.1;;;1.6;;
60865;SDS011;46701;51.558;-0.448;2022-08-19T13:27:05;5.4;;;1.8;;
60865;SDS011;46701;51.558;-0.448;2022-08-19T13:30:07;8;;;1.8;;
60865;SDS011;46701;51.558;-0.448;2022-08-19T13:33:07;6.5;;;1.6;;
60865;SDS011;46701;51.558;-0.448;2022-08-19T13:36:07;5.6;;;1.6;;
60865;SDS011;46701;51.558;-0.448;2022-08-19T13:39:09;6.1;;;1.5;;
60865;SDS011;46701;51.558;-0.448;2022-08-19T13:42:10;5.6;;;1.4;;
60865;SDS011;46701;51.558;-0.448;2022-08-19T13:45:10;6.1;;;1.5;;
60865;SDS011;46701;51.558;-0.448;2022-08-19T13:48:12;6.1;;;1.4;;
60865;SDS011;46701;51.558;-0.448;2022-08-19T13:51:16;9.4;;;1.9;;
60865;SDS011;46701;51.558;-0.448;2022-08-19T13:54:13;8.4;;;1.9;;
60865;SDS011;46701;51.558;-0.448;2022-08-19T13:57:14;7.9;;;1.6;;
60865;SDS011;46701;51.558;-0.448;2022-08-19T14:00:17;6.3;;;1.6;;
60865;SDS011;46701;51.558;-0.448;2022-08-19T14:03:17;6.5;;;1.4;;
60865;SDS011;46701;51.558;-0.448;2022-08-19T14:06:18;6.5;;;1.7;;
60865;SDS011;46701;51.558;-0.448;2022-08-19T14:09:18;6.6;;;1.4;;
60865;SDS011;46701;51.558;-0.448;2022-08-19T14:12:20;6.2;;;1.6;;
60865;SDS011;46701;51.558;-0.448;2022-08-19T14:15:21;5.9;;;1.5;;
60865;SDS011;46701;51.558;-0.448;2022-08-19T14:18:22;5.4;;;1.3;;
60865;SDS011;46701;51.558;-0.448;2022-08-19T14:21:23;4.3;;;1.4;;
60865;SDS011;46701;51.558;-0.448;2022-08-19T14:24:24;4.5;;;1.3;;
60865;SDS011;46701;51.558;-0.448;2022-08-19T14:27:24;5.7;;;1.5;;
60865;SDS011;46701;51.558;-0.448;2022-08-19T14:30:27;5.3;;;1.3;;
60865;SDS011;46701;51.558;-0.448;2022-08-19T14:33:26;3.8;;;1.5;;
60865;SDS011;46701;51.558;-0.448;2022-08-19T14:36:27;6.1;;;1.3;;
60865;SDS011;46701;51.558;-0.448;2022-08-19T14:39:28;4.5;;;1.5;;
60865;SDS011;46701;51.558;-0.448;2022-08-19T14:42:30;5.8;;;1.7;;
60865;SDS011;46701;51.558;-0.448;2022-08-19T14:45:31;4.2;;;1.2;;
60865;SDS011;46701;51.558;-0.448;2022-08-19T14:48:31;6.2;;;1.6;;
60865;SDS011;46701;51.558;-0.448;2022-08-19T14:51:33;3.6;;;1.2;;
60865;SDS011;46701;51.558;-0.448;2022-08-19T14:54:36;6.3;;;1.5;;
60865;SDS011;46701;51.558;-0.448;2022-08-19T14:57:35;6.9;;;1.5;;
60865;SDS011;46701;51.558;-0.448;2022-08-19T15:00:35;6.2;;;1.4;;
60865;SDS011;46701;51.558;-0.448;2022-08-19T15:03:37;6.9;;;1.5;;
60865;SDS011;46701;51.558;-0.448;2022-08-19T15:06:38;7.4;;;1.8;;
60865;SDS011;46701;51.558;-0.448;2022-08-19T15:09:38;7.7;;;1.7;;
60865;SDS011;46701;51.558;-0.448;2022-08-19T15:12:40;6.8;;;1.6;;
60865;SDS011;46701;51.558;-0.448;2022-08-19T15:15:40;7.4;;;1.4;;
60865;SDS011;46701;51.558;-0.448;2022-08-19T15:18:42;6.5;;;1.8;;
60865;SDS011;46701;51.558;-0.448;2022-08-19T15:21:42;5.3;;;1.5;;
60865;SDS011;46701;51.558;-0.448;2022-08-19T15:23:43;4.5;;;1.5;;
60865;SDS011;46701;51.558;-0.448;2022-08-19T15:26:44;7.7;;;1.5;;
60865;SDS011;46701;51.558;-0.448;2022-08-19T15:29:45;6;;;1.5;;
60865;SDS011;46701;51.558;-0.448;2022-08-19T15:32:46;5.7;;;1.5;;
60865;SDS011;46701;51.558;-0.448;2022-08-19T15:35:47;4.1;;;1.4;;
60865;SDS011;46701;51.558;-0.448;2022-08-19T15:38:48;5.6;;;1.4;;
60865;SDS011;46701;51.558;-0.448;2022-08-19T15:41:49;5.8;;;1.6;;
60865;SDS011;46701;51.558;-0.448;2022-08-19T15:44:50;5.9;;;1.6;;
60865;SDS011;46701;51.558;-0.448;2022-08-19T15:47:51;5.4;;;1.5;;
60865;SDS011;46701;51.558;-0.448;2022-08-19T15:50:52;6.5;;;1.6;;
60865;SDS011;46701;51.558;-0.448;2022-08-19T15:53:53;6.4;;;1.9;;
60865;SDS011;46701;51.558;-0.448;2022-08-19T15:56:54;7;;;1.6;;
60865;SDS011;46701;51.558;-0.448;2022-08-19T15:59:55;10.2;;;2;;
60865;SDS011;46701;51.558;-0.448;2022-08-19T16:02:56;6.9;;;1.7;;
60865;SDS011;46701;51.558;-0.448;2022-08-19T16:05:57;6.8;;;1.7;;
60865;SDS011;46701;51.558;-0.448;2022-08-19T16:08:58;7.2;;;1.8;;
60865;SDS011;46701;51.558;-0.448;2022-08-19T16:12:00;7.2;;;1.9;;
60865;SDS011;46701;51.558;-0.448;2022-08-19T16:15:00;6.2;;;2;;
60865;SDS011;46701;51.558;-0.448;2022-08-19T16:18:01;8.7;;;2;;
60865;SDS011;46701;51.558;-0.448;2022-08-19T16:21:02;7.6;;;2.2;;
60865;SDS011;46701;51.558;-0.448;2022-08-19T16:24:04;8;;;1.8;;
60865;SDS011;46701;51.558;-0.448;2022-08-19T16:27:04;8.9;;;2;;
60865;SDS011;46701;51.558;-0.448;2022-08-19T16:30:05;8.4;;;2.2;;
60865;SDS011;46701;51.558;-0.448;2022-08-19T16:33:07;9.1;;;1.7;;
60865;SDS011;46701;51.558;-0.448;2022-08-19T16:36:07;7.1;;;1.7;;
60865;SDS011;46701;51.558;-0.448;2022-08-19T16:39:09;5.5;;;1.7;;
60865;SDS011;46701;51.558;-0.448;2022-08-19T16:42:09;5;;;1.6;;
60865;SDS011;46701;51.558;-0.448;2022-08-19T16:45:10;8.4;;;1.6;;
60865;SDS011;46701;51.558;-0.448;2022-08-19T16:48:11;7.8;;;1.7;;
60865;SDS011;46701;51.558;-0.448;2022-08-19T16:51:12;5.6;;;1.6;;
60865;SDS011;46701;51.558;-0.448;2022-08-19T16:54:13;5.8;;;1.6;;
60865;SDS011;46701;51.558;-0.448;2022-08-19T16:57:14;7.8;;;1.9;;
60865;SDS011;46701;51.558;-0.448;2022-08-19T17:00:15;5.3;;;1.8;;
60865;SDS011;46701;51.558;-0.448;2022-08-19T17:03:16;8.2;;;1.9;;
60865;SDS011;46701;51.558;-0.448;2022-08-19T17:06:18;7.8;;;2;;
60865;SDS011;46701;51.558;-0.448;2022-08-19T17:09:18;6.8;;;1.9;;
60865;SDS011;46701;51.558;-0.448;2022-08-19T17:12:19;8.1;;;2.1;;
60865;SDS011;46701;51.558;-0.448;2022-08-19T17:15:20;9.1;;;2.4;;
60865;SDS011;46701;51.558;-0.448;2022-08-19T17:18:21;9;;;2.2;;
60865;SDS011;46701;51.558;-0.448;2022-08-19T17:20:22;7;;;1.9;;
60865;SDS011;46701;51.558;-0.448;2022-08-19T17:23:22;7.9;;;2.3;;
60865;SDS011;46701;51.558;-0.448;2022-08-19T17:26:24;6.7;;;1.8;;
60865;SDS011;46701;51.558;-0.448;2022-08-19T17:29:24;9.2;;;2;;
60865;SDS011;46701;51.558;-0.448;2022-08-19T17:32:25;5.8;;;1.9;;
60865;SDS011;46701;51.558;-0.448;2022-08-19T17:35:26;5.6;;;1.7;;
60865;SDS011;46701;51.558;-0.448;2022-08-19T17:38:28;7.6;;;1.9;;
60865;SDS011;46701;51.558;-0.448;2022-08-19T17:41:28;10.3;;;2.5;;
60865;SDS011;46701;51.558;-0.448;2022-08-19T17:44:29;10.1;;;2.2;;
60865;SDS011;46701;51.558;-0.448;2022-08-19T17:47:30;8.4;;;1.9;;
60865;SDS011;46701;51.558;-0.448;2022-08-19T17:50:32;9;;;2;;
60865;SDS011;46701;51.558;-0.448;2022-08-19T17:53:32;7.7;;;1.9;;
60865;SDS011;46701;51.558;-0.448;2022-08-19T17:56:33;8.8;;;2.3;;
60865;SDS011;46701;51.558;-0.448;2022-08-19T17:59:34;8.2;;;1.9;;